createdAt,value
2018-11-25T00:00:48.069Z,21.50
2018-11-25T00:03:27.447Z,21.50
2018-11-25T00:06:07.223Z,21.50
2018-11-25T00:08:46.458Z,21.50
2018-11-25T00:11:26.064Z,21.50
2018-11-25T00:14:05.316Z,21.50
2018-11-25T00:16:44.735Z,21.50
2018-11-25T00:19:23.853Z,21.50
2018-11-25T00:22:03.231Z,21.50
2018-11-25T00:24:42.624Z,21.50
2018-11-25T00:27:22.358Z,21.50
2018-11-25T00:30:01.681Z,21.50
2018-11-25T01:37:00.420Z,21.10
2018-11-25T01:42:38.530Z,21.20
2018-11-25T01:45:17.833Z,21.20
2018-11-25T01:47:56.946Z,21.30
2018-11-25T01:50:39.823Z,21.40
2018-11-25T01:53:19.086Z,21.40
2018-11-25T01:55:58.412Z,21.40
2018-11-25T01:58:37.556Z,21.40
2018-11-25T02:01:16.430Z,21.40
2018-11-25T02:03:55.534Z,21.50
2018-11-25T02:06:41.995Z,21.40
2018-11-25T02:09:21.103Z,21.50
2018-11-25T02:11:59.893Z,21.50
2018-11-25T02:14:39.138Z,21.50
2018-11-25T02:17:17.727Z,21.50
2018-11-25T02:19:56.979Z,21.50
2018-11-25T02:22:36.087Z,21.50
2018-11-25T02:25:15.523Z,21.50
2018-11-25T02:27:54.544Z,21.50
2018-11-25T02:30:33.675Z,21.50
2018-11-25T02:33:12.648Z,21.50
2018-11-25T02:35:51.873Z,21.50
2018-11-25T02:38:30.747Z,21.50
2018-11-25T02:41:11.713Z,21.50
2018-11-25T02:43:51.179Z,21.60
2018-11-25T02:46:30.370Z,21.50
2018-11-25T02:49:09.363Z,21.60
2018-11-25T02:51:48.769Z,21.60
2018-11-25T02:54:27.956Z,21.60
2018-11-25T02:57:14.072Z,21.60
2018-11-25T02:59:53.267Z,21.60
2018-11-25T03:02:33.912Z,21.60
2018-11-25T03:05:13.266Z,21.60
2018-11-25T03:07:53.028Z,21.70
2018-11-25T03:10:32.302Z,21.70
2018-11-25T03:13:12.125Z,21.70
2018-11-25T03:15:51.067Z,21.70
2018-11-25T03:18:30.892Z,21.70
2018-11-25T03:21:10.142Z,21.70
2018-11-25T03:23:49.459Z,21.70
2018-11-25T03:26:28.838Z,21.70
2018-11-25T03:29:08.157Z,21.70
2018-11-25T03:31:47.121Z,21.70
2018-11-25T03:34:26.677Z,21.70
2018-11-25T03:37:05.830Z,21.80
2018-11-25T03:39:44.966Z,21.80
2018-11-25T03:42:24.226Z,21.80
2018-11-25T03:45:03.765Z,21.80
2018-11-25T03:47:42.535Z,21.80
2018-11-25T03:50:21.663Z,21.90
2018-11-25T03:53:00.762Z,21.80
2018-11-25T03:55:40.047Z,21.90
2018-11-25T03:58:20.739Z,21.90
2018-11-25T04:01:00.135Z,21.90
2018-11-25T04:03:39.162Z,21.90
2018-11-25T04:06:18.434Z,21.90
2018-11-25T04:08:57.573Z,21.90
2018-11-25T04:11:37.379Z,21.90
2018-11-25T04:14:16.708Z,21.90
2018-11-25T04:16:56.596Z,21.90
2018-11-25T04:19:35.845Z,21.90
2018-11-25T04:22:15.352Z,21.90
2018-11-25T04:24:54.194Z,21.90
2018-11-25T04:27:33.143Z,21.90
2018-11-25T04:30:13.892Z,21.90
2018-11-25T04:32:54.090Z,21.90
2018-11-25T04:35:33.009Z,21.90
2018-11-25T04:38:12.455Z,21.90
2018-11-25T04:40:51.762Z,21.90
2018-11-25T04:43:31.586Z,21.90
2018-11-25T04:46:10.559Z,21.90
2018-11-25T04:48:50.586Z,21.90
2018-11-25T04:51:29.714Z,21.90
2018-11-25T04:54:09.462Z,21.90
2018-11-25T04:56:48.592Z,21.90
2018-11-25T04:59:27.750Z,22.00
2018-11-25T05:02:07.003Z,22.00
2018-11-25T05:04:47.071Z,22.00
2018-11-25T05:07:26.265Z,22.00
2018-11-25T05:10:06.156Z,22.00
2018-11-25T05:12:45.469Z,22.00
2018-11-25T05:15:25.881Z,22.00
2018-11-25T05:18:05.248Z,22.00
2018-11-25T05:20:44.510Z,22.00
2018-11-25T05:23:23.693Z,22.00
2018-11-25T05:26:02.788Z,22.00
2018-11-25T05:28:42.125Z,22.00
2018-11-25T05:31:21.665Z,22.00
2018-11-25T05:34:00.684Z,22.00
2018-11-25T05:36:40.012Z,22.00
2018-11-25T05:39:20.167Z,22.00
2018-11-25T05:41:59.290Z,22.00
2018-11-25T05:44:38.450Z,22.00
2018-11-25T05:47:18.490Z,22.00
2018-11-25T05:49:57.415Z,22.00
2018-11-25T05:52:41.411Z,22.00
2018-11-25T05:55:21.974Z,22.00
2018-11-25T05:58:01.307Z,22.00
2018-11-25T06:00:40.472Z,22.00
2018-11-25T06:03:19.828Z,22.00
2018-11-25T06:05:58.876Z,22.00
2018-11-25T06:08:38.563Z,22.00
2018-11-25T06:11:17.758Z,22.00
2018-11-25T06:13:57.069Z,22.00
2018-11-25T06:16:36.311Z,22.00
2018-11-25T06:19:15.736Z,22.00
2018-11-25T06:24:46.167Z,22.00
2018-11-25T06:27:38.034Z,22.00
2018-11-25T06:30:23.065Z,22.00
2018-11-25T06:33:08.741Z,22.00
2018-11-25T06:35:48.276Z,22.00
2018-11-25T06:38:27.397Z,22.00
2018-11-25T06:41:06.956Z,22.00
2018-11-25T06:43:46.105Z,22.00
2018-11-25T06:46:25.745Z,22.00
2018-11-25T06:49:04.946Z,22.00
2018-11-25T06:51:44.120Z,22.00
2018-11-25T06:54:23.337Z,22.00
2018-11-25T06:57:03.330Z,22.00
2018-11-25T06:59:42.580Z,22.00
2018-11-25T07:02:21.856Z,22.00
2018-11-25T07:05:01.209Z,22.00
2018-11-25T07:07:40.694Z,22.00
2018-11-25T07:10:20.936Z,22.00
2018-11-25T07:12:59.872Z,22.00
2018-11-25T07:15:39.073Z,22.00
2018-11-25T07:18:18.521Z,22.00
2018-11-25T07:20:57.575Z,21.90
2018-11-25T07:23:36.929Z,22.00
2018-11-25T07:26:16.144Z,21.90
2018-11-25T07:28:55.249Z,21.90
2018-11-25T07:31:34.255Z,21.90
2018-11-25T07:34:13.744Z,21.90
2018-11-25T07:36:52.873Z,21.90
2018-11-25T07:39:32.532Z,21.90
2018-11-25T07:42:11.850Z,22.00
2018-11-25T07:44:51.076Z,21.90
2018-11-25T07:47:30.650Z,21.90
2018-11-25T07:50:10.762Z,21.90
2018-11-25T07:52:50.330Z,21.90
2018-11-25T07:55:30.258Z,21.90
2018-11-25T07:58:09.617Z,22.00
2018-11-25T08:00:52.902Z,21.90
2018-11-25T08:03:37.603Z,21.90
2018-11-25T08:06:18.601Z,21.90
2018-11-25T08:08:57.951Z,21.90
2018-11-25T08:11:37.890Z,21.90
2018-11-25T08:14:16.666Z,21.90
2018-11-25T08:16:55.588Z,21.90
2018-11-25T08:19:34.571Z,21.90
2018-11-25T08:22:14.327Z,21.90
2018-11-25T08:24:53.571Z,21.90
2018-11-25T08:27:33.350Z,21.90
2018-11-25T08:30:16.647Z,21.90
2018-11-25T08:32:56.284Z,21.90
2018-11-25T08:35:35.700Z,21.90
2018-11-25T08:38:15.501Z,21.90
2018-11-25T08:40:54.941Z,21.90
2018-11-25T08:43:34.263Z,21.90
2018-11-25T08:46:13.524Z,21.90
2018-11-25T08:48:53.051Z,21.90
2018-11-25T08:51:32.153Z,21.90
2018-11-25T08:54:11.682Z,21.90
2018-11-25T08:56:50.937Z,21.90
2018-11-25T08:59:30.592Z,21.90
2018-11-25T09:02:10.258Z,21.90
2018-11-25T09:04:53.674Z,21.90
2018-11-25T09:07:33.111Z,21.90
2018-11-25T09:10:13.690Z,21.90
2018-11-25T09:12:55.822Z,21.90
2018-11-25T09:15:34.205Z,21.90
2018-11-25T09:18:13.634Z,21.90
2018-11-25T09:20:52.850Z,21.90
2018-11-25T09:23:32.369Z,21.90
2018-11-25T09:26:12.283Z,21.90
2018-11-25T09:28:52.250Z,21.90
2018-11-25T09:31:31.561Z,21.90
2018-11-25T09:34:10.925Z,21.90
2018-11-25T09:36:50.577Z,21.90
2018-11-25T09:39:30.233Z,21.90
2018-11-25T09:42:09.770Z,21.90
2018-11-25T09:44:49.314Z,21.90
2018-11-25T09:47:29.204Z,21.90
2018-11-25T09:50:08.365Z,21.90
2018-11-25T09:52:48.781Z,21.90
2018-11-25T09:55:28.286Z,21.90
2018-11-25T09:58:07.993Z,21.90
2018-11-25T10:00:49.611Z,21.90
2018-11-25T10:03:29.167Z,21.90
2018-11-25T10:06:08.538Z,21.90
2018-11-25T10:08:48.961Z,21.90
2018-11-25T10:11:28.053Z,21.90
2018-11-25T10:14:07.646Z,21.90
2018-11-25T10:16:46.630Z,21.90
2018-11-25T10:19:26.137Z,21.90
2018-11-25T10:22:05.296Z,21.90
2018-11-25T10:24:44.383Z,21.90
2018-11-25T10:27:27.245Z,21.90
2018-11-25T10:30:06.744Z,21.90
2018-11-25T10:32:45.843Z,21.90
2018-11-25T10:35:25.037Z,21.90
2018-11-25T10:38:05.468Z,21.90
2018-11-25T10:40:44.866Z,21.90
2018-11-25T10:43:24.192Z,21.90
2018-11-25T10:46:03.783Z,21.90
2018-11-25T10:48:43.009Z,21.90
2018-11-25T10:51:22.479Z,21.90
2018-11-25T10:54:01.806Z,21.90
2018-11-25T10:56:41.008Z,21.90
2018-11-25T10:59:20.393Z,21.90
2018-11-25T11:03:02.505Z,21.90
2018-11-25T11:05:45.560Z,21.90
2018-11-25T11:08:25.172Z,21.90
2018-11-25T11:11:04.225Z,21.90
2018-11-25T11:13:47.563Z,21.90
2018-11-25T11:16:26.750Z,21.90
2018-11-25T11:19:06.056Z,21.90
2018-11-25T11:21:45.531Z,21.90
2018-11-25T11:24:25.297Z,21.90
2018-11-25T11:27:04.966Z,21.90
2018-11-25T11:29:44.314Z,21.90
2018-11-25T11:32:23.573Z,21.90
2018-11-25T11:35:03.018Z,22.00
2018-11-25T11:37:42.781Z,22.00
2018-11-25T11:40:22.315Z,22.00
2018-11-25T11:43:01.382Z,22.00
2018-11-25T11:45:40.740Z,22.00
2018-11-25T11:48:20.266Z,22.00
2018-11-25T11:50:59.671Z,22.00
2018-11-25T11:53:40.403Z,22.00
2018-11-25T11:56:20.008Z,22.00
2018-11-25T11:58:59.363Z,22.00
2018-11-25T13:05:23.636Z,21.50
2018-11-25T13:08:02.777Z,21.50
2018-11-25T13:10:42.112Z,21.60
2018-11-25T13:13:23.133Z,21.70
2018-11-25T13:16:02.501Z,21.80
2018-11-25T13:18:41.703Z,21.90
2018-11-25T13:21:21.261Z,21.90
2018-11-25T13:24:00.463Z,21.90
2018-11-25T13:26:40.900Z,22.00
2018-11-25T13:29:21.313Z,22.00
2018-11-25T13:32:01.304Z,22.00
2018-11-25T13:34:40.350Z,22.00
2018-11-25T13:37:22.955Z,22.00
2018-11-25T13:40:01.787Z,22.00
2018-11-25T13:42:41.146Z,22.00
2018-11-25T13:45:20.486Z,22.00
2018-11-25T13:47:59.830Z,22.00
2018-11-25T13:50:39.095Z,22.00
2018-11-25T13:53:18.764Z,22.00
2018-11-25T13:55:58.106Z,22.00
2018-11-25T13:58:40.008Z,22.10
2018-11-25T14:01:23.530Z,22.10
2018-11-25T14:04:02.889Z,22.10
2018-11-25T14:06:42.097Z,22.10
2018-11-25T14:09:27.686Z,22.10
2018-11-25T14:12:07.964Z,22.10
2018-11-25T14:14:48.900Z,22.10
2018-11-25T14:20:13.309Z,22.10
2018-11-25T14:22:52.617Z,22.10
2018-11-25T14:25:31.972Z,22.10
2018-11-25T14:28:12.180Z,22.10
2018-11-25T14:30:51.494Z,22.10
2018-11-25T14:33:31.123Z,22.10
2018-11-25T14:36:10.642Z,22.10
2018-11-25T14:38:49.709Z,22.10
2018-11-25T14:41:29.096Z,22.00
2018-11-25T14:44:09.250Z,22.00
2018-11-25T14:46:49.371Z,22.00
2018-11-25T14:49:28.531Z,22.00
2018-11-25T14:52:07.950Z,22.00
2018-11-25T14:54:51.315Z,21.90
2018-11-25T14:57:27.478Z,21.90
2018-11-25T15:00:07.047Z,21.90
2018-11-25T15:02:46.393Z,21.90
2018-11-25T15:05:27.302Z,21.90
2018-11-25T15:08:06.768Z,21.90
2018-11-25T15:10:46.167Z,21.90
2018-11-25T15:13:26.435Z,21.90
2018-11-25T15:16:06.180Z,21.90
2018-11-25T15:18:45.753Z,21.90
2018-11-25T15:21:25.026Z,21.90
2018-11-25T15:24:04.320Z,21.90
2018-11-25T15:26:43.242Z,21.90
2018-11-25T15:29:22.649Z,21.90
2018-11-25T15:32:01.822Z,21.90
2018-11-25T15:34:41.500Z,21.90
2018-11-25T15:37:21.080Z,21.90
2018-11-25T15:40:00.922Z,21.90
2018-11-25T15:42:40.438Z,21.90
2018-11-25T15:45:21.953Z,21.90
2018-11-25T15:48:05.409Z,21.90
2018-11-25T15:50:45.092Z,21.90
2018-11-25T15:53:24.723Z,21.90
2018-11-25T15:56:05.403Z,21.90
2018-11-25T15:58:45.035Z,21.90
2018-11-25T16:01:24.624Z,21.90
2018-11-25T16:04:04.093Z,21.90
2018-11-25T16:06:43.848Z,21.90
2018-11-25T16:09:23.010Z,21.90
2018-11-25T16:12:02.898Z,21.90
2018-11-25T16:14:42.011Z,21.90
2018-11-25T16:17:25.050Z,21.90
2018-11-25T16:20:04.273Z,21.90
2018-11-25T16:22:43.824Z,21.90
2018-11-25T16:25:57.788Z,21.90
2018-11-25T16:28:40.158Z,21.80
2018-11-25T16:31:19.373Z,21.80
2018-11-25T16:33:59.719Z,21.80
2018-11-25T16:36:41.521Z,21.90
2018-11-25T16:39:22.792Z,21.80
2018-11-25T16:42:02.269Z,21.80
2018-11-25T16:44:41.715Z,21.80
2018-11-25T16:47:21.904Z,21.80
2018-11-25T16:50:01.556Z,21.80
2018-11-25T16:52:41.752Z,21.80
2018-11-25T16:55:21.346Z,21.80
2018-11-25T16:58:00.607Z,21.80
2018-11-25T17:00:40.225Z,21.80
2018-11-25T17:03:19.593Z,21.80
2018-11-25T17:05:59.073Z,21.80
2018-11-25T17:08:39.101Z,21.80
2018-11-25T17:11:18.330Z,21.80
2018-11-25T17:13:57.189Z,21.80
2018-11-25T17:16:36.863Z,21.70
2018-11-25T17:19:15.828Z,21.80
2018-11-25T17:21:55.381Z,21.70
2018-11-25T17:24:34.594Z,21.70
2018-11-25T17:27:13.950Z,21.70
2018-11-25T17:29:53.018Z,21.70
2018-11-25T17:32:33.143Z,21.70
2018-11-25T17:35:13.800Z,21.80
2018-11-25T17:37:53.845Z,21.70
2018-11-25T17:40:32.542Z,21.70
2018-11-25T17:43:13.131Z,21.70
2018-11-25T17:45:53.257Z,21.70
2018-11-25T17:48:35.497Z,21.70
2018-11-25T17:51:14.868Z,21.70
2018-11-25T17:53:53.856Z,21.70
2018-11-25T17:56:32.922Z,21.70
2018-11-25T17:59:11.791Z,21.70
2018-11-25T18:01:50.786Z,21.70
2018-11-25T18:04:30.451Z,21.70
2018-11-25T18:07:10.085Z,21.70
2018-11-25T18:09:49.179Z,21.70
2018-11-25T18:12:28.454Z,21.70
2018-11-25T18:15:08.068Z,21.70
2018-11-25T18:17:50.225Z,21.70
2018-11-25T18:20:30.013Z,21.70
2018-11-25T18:23:10.840Z,21.70
2018-11-25T18:25:50.615Z,21.70
2018-11-25T18:28:29.604Z,21.70
2018-11-25T18:31:09.180Z,21.70
2018-11-25T18:33:48.293Z,21.70
2018-11-25T18:36:27.694Z,21.70
2018-11-25T18:39:07.690Z,21.60
2018-11-25T18:41:47.198Z,21.60
2018-11-25T18:44:26.421Z,21.60
2018-11-25T18:47:05.581Z,21.60
2018-11-25T18:49:44.747Z,21.60
2018-11-25T18:52:24.092Z,21.60
2018-11-25T18:55:01.431Z,21.60
2018-11-25T18:57:40.816Z,21.60
2018-11-25T19:00:52.622Z,21.60
2018-11-25T19:03:31.745Z,21.60
2018-11-25T19:06:14.312Z,21.60
2018-11-25T19:08:53.664Z,21.60
2018-11-25T19:11:32.759Z,21.60
2018-11-25T19:14:14.203Z,21.60
2018-11-25T19:16:53.281Z,21.60
2018-11-25T19:19:33.616Z,21.60
2018-11-25T19:22:13.789Z,21.60
2018-11-25T19:24:53.328Z,21.60
2018-11-25T19:27:32.451Z,21.60
2018-11-25T19:30:13.299Z,21.60
2018-11-25T19:32:54.249Z,21.60
2018-11-25T19:35:34.042Z,21.60
2018-11-25T19:38:15.784Z,21.60
2018-11-25T19:40:57.548Z,21.60
2018-11-25T19:43:37.720Z,21.60
2018-11-25T19:46:16.972Z,21.60
2018-11-25T19:48:57.660Z,21.60
2018-11-25T19:51:36.769Z,21.60
2018-11-25T19:54:16.022Z,21.60
2018-11-25T19:56:55.422Z,21.60
2018-11-25T19:59:34.853Z,21.50
2018-11-25T20:02:14.487Z,21.50
2018-11-25T20:04:53.742Z,21.50
2018-11-25T20:07:33.249Z,21.50
2018-11-25T20:10:13.024Z,21.50
2018-11-25T20:12:52.713Z,21.50
2018-11-25T20:15:31.993Z,21.50
2018-11-25T20:18:11.913Z,21.50
2018-11-25T20:20:55.033Z,21.50
2018-11-25T20:23:34.337Z,21.50
2018-11-25T20:26:13.612Z,21.50
2018-11-25T20:28:52.991Z,21.50
2018-11-25T20:31:32.209Z,21.50
2018-11-25T20:34:12.053Z,21.50
2018-11-25T20:36:51.072Z,21.50
2018-11-25T20:39:34.588Z,21.50
2018-11-25T20:42:13.439Z,21.50
2018-11-25T20:44:52.835Z,21.50
2018-11-25T20:47:31.844Z,21.50
2018-11-25T20:50:11.970Z,21.50
2018-11-25T20:52:55.036Z,21.50
2018-11-25T20:55:34.141Z,21.50
2018-11-25T20:58:13.289Z,21.50
2018-11-25T21:00:53.037Z,21.50
2018-11-25T21:03:31.901Z,21.50
2018-11-25T21:06:11.245Z,21.50
2018-11-25T21:08:50.614Z,21.50
2018-11-25T21:11:29.785Z,21.50
2018-11-25T21:14:08.933Z,21.50
2018-11-25T21:16:48.309Z,21.50
2018-11-25T21:19:27.294Z,21.40
2018-11-25T21:22:06.501Z,21.40
2018-11-25T21:24:45.797Z,21.40
2018-11-25T21:27:25.790Z,21.40
2018-11-25T21:30:04.957Z,21.40
2018-11-25T21:32:44.101Z,21.40
2018-11-25T21:35:23.340Z,21.40
2018-11-25T21:38:03.292Z,21.40
2018-11-25T21:40:42.377Z,21.40
2018-11-25T21:43:21.651Z,21.40
2018-11-25T21:46:00.770Z,21.40
2018-11-25T21:48:40.087Z,21.40
2018-11-25T21:51:19.323Z,21.40
2018-11-25T21:53:58.710Z,21.40
2018-11-25T21:56:37.827Z,21.30
2018-11-25T21:59:16.975Z,21.30
2018-11-25T22:01:56.158Z,21.30
2018-11-25T22:04:35.858Z,21.30
2018-11-25T22:07:15.017Z,21.30
2018-11-25T22:09:54.597Z,21.30
2018-11-25T22:12:33.650Z,21.30
2018-11-25T22:15:13.840Z,21.30
2018-11-25T22:17:53.241Z,21.30
2018-11-25T22:20:32.537Z,21.30
2018-11-25T22:23:11.518Z,21.30
2018-11-25T22:25:50.820Z,21.30
2018-11-25T22:28:29.907Z,21.30
2018-11-25T22:31:09.673Z,21.30
2018-11-25T22:33:49.401Z,21.30
2018-11-25T22:36:28.525Z,21.30
2018-11-25T22:39:07.991Z,21.30
2018-11-25T22:41:47.546Z,21.20
2018-11-25T22:44:27.102Z,21.20
2018-11-25T22:47:06.831Z,21.30
2018-11-25T22:49:46.364Z,21.20
2018-11-25T22:52:25.883Z,21.20
2018-11-25T22:55:04.888Z,21.20
2018-11-25T22:57:44.426Z,21.20
2018-11-25T23:00:27.698Z,21.20
2018-11-25T23:03:07.021Z,21.20
2018-11-25T23:05:50.323Z,21.20
2018-11-25T23:08:29.722Z,21.20
2018-11-25T23:11:08.856Z,21.20
2018-11-25T23:13:48.290Z,21.20
2018-11-25T23:16:27.261Z,21.20
2018-11-25T23:19:06.840Z,21.20
2018-11-25T23:21:46.066Z,21.20
2018-11-25T23:24:25.297Z,21.20
2018-11-25T23:27:04.480Z,21.20
2018-11-25T23:29:43.942Z,21.20
2018-11-25T23:32:23.356Z,21.10
2018-11-25T23:35:02.828Z,21.10
2018-11-25T23:37:41.808Z,21.10
2018-11-25T23:40:21.421Z,21.10
2018-11-25T23:43:00.956Z,21.10
2018-11-25T23:45:41.064Z,21.10
2018-11-25T23:48:20.133Z,21.10
2018-11-25T23:50:59.385Z,21.10
2018-11-25T23:53:38.567Z,21.10
2018-11-25T23:56:17.886Z,21.10
2018-11-25T23:58:57.108Z,21.10
